sensor_id;sensor_type;location;lat;lon;timestamp;P1;durP1;ratioP1;P2;durP2;ratioP2
58302;SDS011;44109;52.398;7.024;2023-11-19T00:00:21;15.82;;;11.50;;
58302;SDS011;44109;52.398;7.024;2023-11-19T00:02:49;14.90;;;12.00;;
58302;SDS011;44109;52.398;7.024;2023-11-19T00:05:16;16.35;;;12.05;;
58302;SDS011;44109;52.398;7.024;2023-11-19T00:07:44;18.77;;;14.32;;
58302;SDS011;44109;52.398;7.024;2023-11-19T00:10:12;12.52;;;10.27;;
58302;SDS011;44109;52.398;7.024;2023-11-19T00:12:46;8.98;;;7.93;;
58302;SDS011;44109;52.398;7.024;2023-11-19T00:15:15;18.73;;;15.00;;
58302;SDS011;44109;52.398;7.024;2023-11-19T00:17:45;18.02;;;13.73;;
58302;SDS011;44109;52.398;7.024;2023-11-19T00:20:14;11.05;;;9.00;;
58302;SDS011;44109;52.398;7.024;2023-11-19T00:22:43;12.57;;;9.98;;
58302;SDS011;44109;52.398;7.024;2023-11-19T00:25:14;9.93;;;8.88;;
58302;SDS011;44109;52.398;7.024;2023-11-19T00:27:41;10.68;;;8.40;;
58302;SDS011;44109;52.398;7.024;2023-11-19T00:30:11;9.90;;;8.90;;
58302;SDS011;44109;52.398;7.024;2023-11-19T00:32:40;12.82;;;10.90;;
58302;SDS011;44109;52.398;7.024;2023-11-19T00:35:08;16.00;;;12.75;;
58302;SDS011;44109;52.398;7.024;2023-11-19T00:37:36;14.13;;;11.05;;
58302;SDS011;44109;52.398;7.024;2023-11-19T00:40:06;13.48;;;11.80;;
58302;SDS011;44109;52.398;7.024;2023-11-19T00:42:36;25.17;;;19.00;;
58302;SDS011;44109;52.398;7.024;2023-11-19T00:45:04;24.73;;;18.65;;
58302;SDS011;44109;52.398;7.024;2023-11-19T00:47:35;29.80;;;19.52;;
58302;SDS011;44109;52.398;7.024;2023-11-19T00:50:03;27.83;;;20.52;;
58302;SDS011;44109;52.398;7.024;2023-11-19T00:52:31;19.15;;;15.73;;
58302;SDS011;44109;52.398;7.024;2023-11-19T00:54:58;24.48;;;18.67;;
58302;SDS011;44109;52.398;7.024;2023-11-19T00:57:26;24.05;;;19.17;;
58302;SDS011;44109;52.398;7.024;2023-11-19T00:59:53;13.60;;;12.23;;
58302;SDS011;44109;52.398;7.024;2023-11-19T01:02:21;24.63;;;18.45;;
58302;SDS011;44109;52.398;7.024;2023-11-19T01:04:50;33.13;;;21.27;;
58302;SDS011;44109;52.398;7.024;2023-11-19T01:07:18;24.25;;;18.77;;
58302;SDS011;44109;52.398;7.024;2023-11-19T01:09:47;40.22;;;27.65;;
58302;SDS011;44109;52.398;7.024;2023-11-19T01:12:15;22.33;;;18.33;;
58302;SDS011;44109;52.398;7.024;2023-11-19T01:14:42;24.83;;;18.50;;
58302;SDS011;44109;52.398;7.024;2023-11-19T01:17:09;32.97;;;21.08;;
58302;SDS011;44109;52.398;7.024;2023-11-19T01:19:37;37.75;;;26.42;;
58302;SDS011;44109;52.398;7.024;2023-11-19T01:22:05;36.08;;;25.35;;
58302;SDS011;44109;52.398;7.024;2023-11-19T01:24:33;41.28;;;28.08;;
58302;SDS011;44109;52.398;7.024;2023-11-19T01:27:00;27.27;;;18.52;;
58302;SDS011;44109;52.398;7.024;2023-11-19T01:29:28;43.83;;;29.13;;
58302;SDS011;44109;52.398;7.024;2023-11-19T01:31:55;36.17;;;23.55;;
58302;SDS011;44109;52.398;7.024;2023-11-19T01:34:22;22.40;;;16.90;;
58302;SDS011;44109;52.398;7.024;2023-11-19T01:36:50;32.85;;;21.05;;
58302;SDS011;44109;52.398;7.024;2023-11-19T01:39:19;25.60;;;19.27;;
58302;SDS011;44109;52.398;7.024;2023-11-19T01:41:46;27.58;;;19.38;;
58302;SDS011;44109;52.398;7.024;2023-11-19T01:44:14;47.83;;;29.40;;
58302;SDS011;44109;52.398;7.024;2023-11-19T01:46:42;41.47;;;29.45;;
58302;SDS011;44109;52.398;7.024;2023-11-19T01:49:14;38.60;;;23.95;;
58302;SDS011;44109;52.398;7.024;2023-11-19T01:51:43;30.02;;;20.90;;
58302;SDS011;44109;52.398;7.024;2023-11-19T01:54:12;36.25;;;26.55;;
58302;SDS011;44109;52.398;7.024;2023-11-19T01:56:42;28.73;;;20.88;;
58302;SDS011;44109;52.398;7.024;2023-11-19T01:59:10;26.77;;;18.48;;
58302;SDS011;44109;52.398;7.024;2023-11-19T02:01:40;32.17;;;23.10;;
58302;SDS011;44109;52.398;7.024;2023-11-19T02:04:09;39.45;;;26.02;;
58302;SDS011;44109;52.398;7.024;2023-11-19T02:06:37;31.15;;;19.10;;
58302;SDS011;44109;52.398;7.024;2023-11-19T02:09:08;23.98;;;18.08;;
58302;SDS011;44109;52.398;7.024;2023-11-19T02:11:36;19.08;;;15.25;;
58302;SDS011;44109;52.398;7.024;2023-11-19T02:14:07;34.25;;;19.98;;
58302;SDS011;44109;52.398;7.024;2023-11-19T02:16:36;25.75;;;17.75;;
58302;SDS011;44109;52.398;7.024;2023-11-19T02:19:04;29.85;;;19.55;;
58302;SDS011;44109;52.398;7.024;2023-11-19T02:21:32;26.67;;;16.63;;
58302;SDS011;44109;52.398;7.024;2023-11-19T02:23:59;27.75;;;20.10;;
58302;SDS011;44109;52.398;7.024;2023-11-19T02:26:38;34.45;;;23.92;;
58302;SDS011;44109;52.398;7.024;2023-11-19T02:29:13;29.52;;;18.45;;
58302;SDS011;44109;52.398;7.024;2023-11-19T02:31:40;35.67;;;20.77;;
58302;SDS011;44109;52.398;7.024;2023-11-19T02:34:09;34.78;;;21.15;;
58302;SDS011;44109;52.398;7.024;2023-11-19T02:36:39;23.73;;;16.85;;
58302;SDS011;44109;52.398;7.024;2023-11-19T02:39:08;29.77;;;17.27;;
58302;SDS011;44109;52.398;7.024;2023-11-19T02:41:38;28.70;;;18.55;;
58302;SDS011;44109;52.398;7.024;2023-11-19T02:44:06;40.95;;;22.60;;
58302;SDS011;44109;52.398;7.024;2023-11-19T02:46:35;30.95;;;20.95;;
58302;SDS011;44109;52.398;7.024;2023-11-19T02:49:02;42.03;;;21.65;;
58302;SDS011;44109;52.398;7.024;2023-11-19T02:51:30;30.83;;;18.17;;
58302;SDS011;44109;52.398;7.024;2023-11-19T02:53:57;29.30;;;16.02;;
58302;SDS011;44109;52.398;7.024;2023-11-19T02:56:24;20.05;;;14.10;;
58302;SDS011;44109;52.398;7.024;2023-11-19T02:58:52;27.50;;;17.00;;
58302;SDS011;44109;52.398;7.024;2023-11-19T03:01:22;31.30;;;19.17;;
58302;SDS011;44109;52.398;7.024;2023-11-19T03:03:56;30.98;;;16.15;;
58302;SDS011;44109;52.398;7.024;2023-11-19T03:06:24;30.63;;;16.38;;
58302;SDS011;44109;52.398;7.024;2023-11-19T03:08:54;27.42;;;14.73;;
58302;SDS011;44109;52.398;7.024;2023-11-19T03:11:21;25.63;;;13.98;;
58302;SDS011;44109;52.398;7.024;2023-11-19T03:13:50;32.25;;;16.05;;
58302;SDS011;44109;52.398;7.024;2023-11-19T03:16:17;24.05;;;13.55;;
58302;SDS011;44109;52.398;7.024;2023-11-19T03:18:45;26.13;;;13.38;;
58302;SDS011;44109;52.398;7.024;2023-11-19T03:21:13;21.75;;;11.70;;
58302;SDS011;44109;52.398;7.024;2023-11-19T03:23:41;32.45;;;15.50;;
58302;SDS011;44109;52.398;7.024;2023-11-19T03:26:10;21.83;;;11.27;;
58302;SDS011;44109;52.398;7.024;2023-11-19T03:28:39;30.00;;;13.85;;
58302;SDS011;44109;52.398;7.024;2023-11-19T03:31:06;26.42;;;12.45;;
58302;SDS011;44109;52.398;7.024;2023-11-19T03:33:34;25.60;;;11.88;;
58302;SDS011;44109;52.398;7.024;2023-11-19T03:36:03;26.45;;;11.32;;
58302;SDS011;44109;52.398;7.024;2023-11-19T03:38:33;32.67;;;12.90;;
58302;SDS011;44109;52.398;7.024;2023-11-19T03:41:01;33.35;;;13.25;;
58302;SDS011;44109;52.398;7.024;2023-11-19T03:43:30;26.77;;;10.88;;
58302;SDS011;44109;52.398;7.024;2023-11-19T03:45:59;30.75;;;11.73;;
58302;SDS011;44109;52.398;7.024;2023-11-19T03:48:26;27.50;;;11.93;;
58302;SDS011;44109;52.398;7.024;2023-11-19T03:50:53;31.42;;;11.52;;
58302;SDS011;44109;52.398;7.024;2023-11-19T03:53:21;27.50;;;8.93;;
58302;SDS011;44109;52.398;7.024;2023-11-19T03:55:51;20.30;;;9.02;;
58302;SDS011;44109;52.398;7.024;2023-11-19T03:58:18;31.75;;;9.88;;
58302;SDS011;44109;52.398;7.024;2023-11-19T04:00:45;31.13;;;9.77;;
58302;SDS011;44109;52.398;7.024;2023-11-19T04:03:13;27.25;;;8.98;;
58302;SDS011;44109;52.398;7.024;2023-11-19T04:05:40;28.30;;;9.35;;
58302;SDS011;44109;52.398;7.024;2023-11-19T04:08:08;24.25;;;8.23;;
58302;SDS011;44109;52.398;7.024;2023-11-19T04:10:35;31.70;;;9.57;;
58302;SDS011;44109;52.398;7.024;2023-11-19T04:13:04;36.33;;;10.20;;
58302;SDS011;44109;52.398;7.024;2023-11-19T04:15:31;29.35;;;8.50;;
58302;SDS011;44109;52.398;7.024;2023-11-19T04:17:59;27.40;;;9.43;;
58302;SDS011;44109;52.398;7.024;2023-11-19T04:20:26;26.20;;;9.00;;
58302;SDS011;44109;52.398;7.024;2023-11-19T04:22:53;33.47;;;10.05;;
58302;SDS011;44109;52.398;7.024;2023-11-19T04:25:22;35.85;;;9.50;;
58302;SDS011;44109;52.398;7.024;2023-11-19T04:27:51;30.48;;;8.32;;
58302;SDS011;44109;52.398;7.024;2023-11-19T04:30:20;36.15;;;9.00;;
58302;SDS011;44109;52.398;7.024;2023-11-19T04:32:48;38.58;;;10.60;;
58302;SDS011;44109;52.398;7.024;2023-11-19T04:35:15;37.65;;;10.35;;
58302;SDS011;44109;52.398;7.024;2023-11-19T04:37:42;40.17;;;10.25;;
58302;SDS011;44109;52.398;7.024;2023-11-19T04:40:10;38.80;;;10.55;;
58302;SDS011;44109;52.398;7.024;2023-11-19T04:42:38;31.50;;;8.43;;
58302;SDS011;44109;52.398;7.024;2023-11-19T04:45:06;35.22;;;9.68;;
58302;SDS011;44109;52.398;7.024;2023-11-19T04:47:37;33.25;;;9.98;;
58302;SDS011;44109;52.398;7.024;2023-11-19T04:50:05;33.10;;;9.55;;
58302;SDS011;44109;52.398;7.024;2023-11-19T04:52:37;35.75;;;9.75;;
58302;SDS011;44109;52.398;7.024;2023-11-19T04:55:06;35.47;;;9.45;;
58302;SDS011;44109;52.398;7.024;2023-11-19T04:57:37;38.00;;;8.18;;
58302;SDS011;44109;52.398;7.024;2023-11-19T05:00:04;40.80;;;10.25;;
58302;SDS011;44109;52.398;7.024;2023-11-19T05:02:33;33.05;;;10.15;;
58302;SDS011;44109;52.398;7.024;2023-11-19T05:05:02;37.17;;;10.05;;
58302;SDS011;44109;52.398;7.024;2023-11-19T05:07:30;28.85;;;8.25;;
58302;SDS011;44109;52.398;7.024;2023-11-19T05:09:58;31.73;;;9.60;;
58302;SDS011;44109;52.398;7.024;2023-11-19T05:12:26;27.00;;;9.15;;
58302;SDS011;44109;52.398;7.024;2023-11-19T05:14:53;34.88;;;8.85;;
58302;SDS011;44109;52.398;7.024;2023-11-19T05:17:20;37.80;;;10.20;;
58302;SDS011;44109;52.398;7.024;2023-11-19T05:19:48;38.92;;;10.95;;
58302;SDS011;44109;52.398;7.024;2023-11-19T05:22:17;39.17;;;9.68;;
58302;SDS011;44109;52.398;7.024;2023-11-19T05:24:46;41.28;;;9.73;;
58302;SDS011;44109;52.398;7.024;2023-11-19T05:27:14;41.80;;;10.95;;
58302;SDS011;44109;52.398;7.024;2023-11-19T05:29:41;36.50;;;9.15;;
58302;SDS011;44109;52.398;7.024;2023-11-19T05:32:09;42.95;;;10.55;;
58302;SDS011;44109;52.398;7.024;2023-11-19T05:34:37;37.55;;;9.38;;
58302;SDS011;44109;52.398;7.024;2023-11-19T05:37:04;36.38;;;10.82;;
58302;SDS011;44109;52.398;7.024;2023-11-19T05:39:33;39.63;;;9.38;;
58302;SDS011;44109;52.398;7.024;2023-11-19T05:42:01;35.85;;;9.27;;
58302;SDS011;44109;52.398;7.024;2023-11-19T05:44:28;37.88;;;10.13;;
58302;SDS011;44109;52.398;7.024;2023-11-19T05:46:55;35.85;;;10.15;;
58302;SDS011;44109;52.398;7.024;2023-11-19T05:49:23;39.05;;;9.98;;
58302;SDS011;44109;52.398;7.024;2023-11-19T05:51:50;44.13;;;12.02;;
58302;SDS011;44109;52.398;7.024;2023-11-19T05:54:21;42.17;;;10.73;;
58302;SDS011;44109;52.398;7.024;2023-11-19T05:56:50;46.22;;;11.27;;
58302;SDS011;44109;52.398;7.024;2023-11-19T05:59:19;40.28;;;10.45;;
58302;SDS011;44109;52.398;7.024;2023-11-19T06:01:48;45.95;;;10.52;;
58302;SDS011;44109;52.398;7.024;2023-11-19T06:04:16;33.67;;;9.05;;
58302;SDS011;44109;52.398;7.024;2023-11-19T06:06:43;48.85;;;11.18;;
58302;SDS011;44109;52.398;7.024;2023-11-19T06:09:11;43.05;;;10.73;;
58302;SDS011;44109;52.398;7.024;2023-11-19T06:11:38;30.50;;;9.57;;
58302;SDS011;44109;52.398;7.024;2023-11-19T06:14:07;44.60;;;10.52;;
58302;SDS011;44109;52.398;7.024;2023-11-19T06:16:34;40.45;;;10.13;;
58302;SDS011;44109;52.398;7.024;2023-11-19T06:19:05;33.80;;;9.43;;
58302;SDS011;44109;52.398;7.024;2023-11-19T06:21:32;41.95;;;9.98;;
58302;SDS011;44109;52.398;7.024;2023-11-19T06:24:01;45.65;;;10.57;;
58302;SDS011;44109;52.398;7.024;2023-11-19T06:26:29;40.90;;;10.60;;
58302;SDS011;44109;52.398;7.024;2023-11-19T06:28:56;45.95;;;10.25;;
58302;SDS011;44109;52.398;7.024;2023-11-19T06:31:25;42.08;;;10.45;;
58302;SDS011;44109;52.398;7.024;2023-11-19T06:33:52;51.47;;;11.85;;
58302;SDS011;44109;52.398;7.024;2023-11-19T06:36:20;45.72;;;10.30;;
58302;SDS011;44109;52.398;7.024;2023-11-19T06:38:47;39.10;;;11.68;;
58302;SDS011;44109;52.398;7.024;2023-11-19T06:41:14;42.42;;;9.98;;
58302;SDS011;44109;52.398;7.024;2023-11-19T06:43:42;41.15;;;10.80;;
58302;SDS011;44109;52.398;7.024;2023-11-19T06:46:16;47.30;;;10.55;;
58302;SDS011;44109;52.398;7.024;2023-11-19T06:48:45;40.38;;;10.40;;
58302;SDS011;44109;52.398;7.024;2023-11-19T06:51:13;45.72;;;10.50;;
58302;SDS011;44109;52.398;7.024;2023-11-19T06:53:42;50.38;;;10.93;;
58302;SDS011;44109;52.398;7.024;2023-11-19T06:56:17;43.40;;;10.30;;
58302;SDS011;44109;52.398;7.024;2023-11-19T06:58:46;45.15;;;10.52;;
58302;SDS011;44109;52.398;7.024;2023-11-19T07:01:14;40.42;;;10.07;;
58302;SDS011;44109;52.398;7.024;2023-11-19T07:03:42;38.47;;;9.93;;
58302;SDS011;44109;52.398;7.024;2023-11-19T07:06:11;38.28;;;10.32;;
58302;SDS011;44109;52.398;7.024;2023-11-19T07:08:40;46.30;;;11.40;;
58302;SDS011;44109;52.398;7.024;2023-11-19T07:11:10;51.20;;;11.15;;
58302;SDS011;44109;52.398;7.024;2023-11-19T07:13:37;46.50;;;10.88;;
58302;SDS011;44109;52.398;7.024;2023-11-19T07:16:05;39.20;;;9.27;;
58302;SDS011;44109;52.398;7.024;2023-11-19T07:18:35;39.40;;;10.57;;
58302;SDS011;44109;52.398;7.024;2023-11-19T07:21:04;48.80;;;11.02;;
58302;SDS011;44109;52.398;7.024;2023-11-19T07:23:34;44.95;;;10.63;;
58302;SDS011;44109;52.398;7.024;2023-11-19T07:26:04;36.92;;;10.60;;
58302;SDS011;44109;52.398;7.024;2023-11-19T07:28:34;43.35;;;11.13;;
58302;SDS011;44109;52.398;7.024;2023-11-19T07:31:01;44.60;;;11.23;;
58302;SDS011;44109;52.398;7.024;2023-11-19T07:33:28;45.83;;;10.27;;
58302;SDS011;44109;52.398;7.024;2023-11-19T07:35:56;46.22;;;10.63;;
58302;SDS011;44109;52.398;7.024;2023-11-19T07:38:23;36.13;;;8.98;;
58302;SDS011;44109;52.398;7.024;2023-11-19T07:40:52;52.22;;;11.18;;
58302;SDS011;44109;52.398;7.024;2023-11-19T07:43:19;37.20;;;10.13;;
58302;SDS011;44109;52.398;7.024;2023-11-19T07:45:47;42.30;;;9.43;;
58302;SDS011;44109;52.398;7.024;2023-11-19T07:48:14;36.35;;;10.30;;
58302;SDS011;44109;52.398;7.024;2023-11-19T07:50:43;48.33;;;11.90;;
58302;SDS011;44109;52.398;7.024;2023-11-19T07:53:11;42.88;;;11.15;;
58302;SDS011;44109;52.398;7.024;2023-11-19T07:55:38;34.22;;;9.38;;
58302;SDS011;44109;52.398;7.024;2023-11-19T07:58:07;45.38;;;11.00;;
58302;SDS011;44109;52.398;7.024;2023-11-19T08:00:35;51.90;;;11.10;;
58302;SDS011;44109;52.398;7.024;2023-11-19T08:03:02;46.40;;;10.02;;
58302;SDS011;44109;52.398;7.024;2023-11-19T08:05:31;48.05;;;10.25;;
58302;SDS011;44109;52.398;7.024;2023-11-19T08:07:58;33.58;;;9.27;;
58302;SDS011;44109;52.398;7.024;2023-11-19T08:10:26;45.15;;;10.40;;
58302;SDS011;44109;52.398;7.024;2023-11-19T08:12:54;37.97;;;9.57;;
58302;SDS011;44109;52.398;7.024;2023-11-19T08:15:23;47.15;;;10.60;;
58302;SDS011;44109;52.398;7.024;2023-11-19T08:17:50;39.10;;;10.30;;
58302;SDS011;44109;52.398;7.024;2023-11-19T08:20:18;43.72;;;10.32;;
58302;SDS011;44109;52.398;7.024;2023-11-19T08:22:45;43.42;;;10.23;;
58302;SDS011;44109;52.398;7.024;2023-11-19T08:25:13;41.38;;;10.43;;
58302;SDS011;44109;52.398;7.024;2023-11-19T08:27:40;51.47;;;11.18;;
58302;SDS011;44109;52.398;7.024;2023-11-19T08:30:09;37.20;;;10.02;;
58302;SDS011;44109;52.398;7.024;2023-11-19T08:32:39;44.63;;;10.13;;
58302;SDS011;44109;52.398;7.024;2023-11-19T08:35:06;37.60;;;8.73;;
58302;SDS011;44109;52.398;7.024;2023-11-19T08:37:35;35.55;;;10.13;;
58302;SDS011;44109;52.398;7.024;2023-11-19T08:40:03;41.17;;;10.43;;
58302;SDS011;44109;52.398;7.024;2023-11-19T08:42:33;35.42;;;10.32;;
58302;SDS011;44109;52.398;7.024;2023-11-19T08:45:00;41.78;;;10.48;;
58302;SDS011;44109;52.398;7.024;2023-11-19T08:47:28;45.67;;;10.85;;
58302;SDS011;44109;52.398;7.024;2023-11-19T08:49:57;41.45;;;10.38;;
58302;SDS011;44109;52.398;7.024;2023-11-19T08:52:24;46.75;;;9.80;;
58302;SDS011;44109;52.398;7.024;2023-11-19T08:54:51;41.00;;;10.65;;
58302;SDS011;44109;52.398;7.024;2023-11-19T08:57:19;35.15;;;9.60;;
58302;SDS011;44109;52.398;7.024;2023-11-19T08:59:46;39.40;;;10.40;;
58302;SDS011;44109;52.398;7.024;2023-11-19T09:02:16;43.95;;;10.20;;
58302;SDS011;44109;52.398;7.024;2023-11-19T09:04:44;53.75;;;10.60;;
58302;SDS011;44109;52.398;7.024;2023-11-19T09:07:13;41.30;;;9.98;;
58302;SDS011;44109;52.398;7.024;2023-11-19T09:09:40;41.20;;;9.60;;
58302;SDS011;44109;52.398;7.024;2023-11-19T09:12:08;42.35;;;10.23;;
58302;SDS011;44109;52.398;7.024;2023-11-19T09:14:35;28.45;;;8.57;;
58302;SDS011;44109;52.398;7.024;2023-11-19T09:17:02;50.28;;;10.13;;
58302;SDS011;44109;52.398;7.024;2023-11-19T09:19:32;36.10;;;9.52;;
58302;SDS011;44109;52.398;7.024;2023-11-19T09:22:01;37.55;;;9.38;;
58302;SDS011;44109;52.398;7.024;2023-11-19T09:24:30;41.05;;;9.90;;
58302;SDS011;44109;52.398;7.024;2023-11-19T09:26:58;37.58;;;9.90;;
58302;SDS011;44109;52.398;7.024;2023-11-19T09:29:26;42.17;;;10.45;;
58302;SDS011;44109;52.398;7.024;2023-11-19T09:31:53;42.42;;;9.10;;
58302;SDS011;44109;52.398;7.024;2023-11-19T09:34:21;31.02;;;8.70;;
58302;SDS011;44109;52.398;7.024;2023-11-19T09:36:48;40.20;;;10.48;;
58302;SDS011;44109;52.398;7.024;2023-11-19T09:39:15;36.95;;;9.57;;
58302;SDS011;44109;52.398;7.024;2023-11-19T09:41:45;33.28;;;9.63;;
58302;SDS011;44109;52.398;7.024;2023-11-19T09:44:13;37.25;;;9.02;;
58302;SDS011;44109;52.398;7.024;2023-11-19T09:46:43;41.55;;;10.85;;
58302;SDS011;44109;52.398;7.024;2023-11-19T09:49:12;43.30;;;9.98;;
58302;SDS011;44109;52.398;7.024;2023-11-19T09:51:43;45.25;;;10.48;;
58302;SDS011;44109;52.398;7.024;2023-11-19T09:54:10;45.05;;;10.48;;
58302;SDS011;44109;52.398;7.024;2023-11-19T09:56:39;44.50;;;9.50;;
58302;SDS011;44109;52.398;7.024;2023-11-19T09:59:09;30.67;;;9.60;;
58302;SDS011;44109;52.398;7.024;2023-11-19T10:01:39;43.10;;;10.43;;
58302;SDS011;44109;52.398;7.024;2023-11-19T10:04:09;38.95;;;10.02;;
58302;SDS011;44109;52.398;7.024;2023-11-19T10:06:42;38.88;;;9.70;;
58302;SDS011;44109;52.398;7.024;2023-11-19T10:09:11;29.58;;;9.13;;
58302;SDS011;44109;52.398;7.024;2023-11-19T10:11:41;44.00;;;10.07;;
58302;SDS011;44109;52.398;7.024;2023-11-19T10:14:09;38.38;;;10.27;;
58302;SDS011;44109;52.398;7.024;2023-11-19T10:16:37;42.00;;;9.80;;
58302;SDS011;44109;52.398;7.024;2023-11-19T10:19:06;38.08;;;10.60;;
58302;SDS011;44109;52.398;7.024;2023-11-19T10:21:34;23.45;;;8.07;;
58302;SDS011;44109;52.398;7.024;2023-11-19T10:24:02;38.08;;;10.02;;
58302;SDS011;44109;52.398;7.024;2023-11-19T10:26:31;36.10;;;9.43;;
58302;SDS011;44109;52.398;7.024;2023-11-19T10:29:00;42.63;;;10.57;;
58302;SDS011;44109;52.398;7.024;2023-11-19T10:31:28;36.78;;;10.27;;
58302;SDS011;44109;52.398;7.024;2023-11-19T10:33:56;41.10;;;10.60;;
58302;SDS011;44109;52.398;7.024;2023-11-19T10:36:26;43.72;;;11.20;;
58302;SDS011;44109;52.398;7.024;2023-11-19T10:39:06;41.57;;;10.83;;
58302;SDS011;44109;52.398;7.024;2023-11-19T10:41:35;43.47;;;10.13;;
58302;SDS011;44109;52.398;7.024;2023-11-19T10:44:02;41.25;;;10.30;;
58302;SDS011;44109;52.398;7.024;2023-11-19T10:46:39;38.25;;;9.75;;
58302;SDS011;44109;52.398;7.024;2023-11-19T10:49:12;34.15;;;9.43;;
58302;SDS011;44109;52.398;7.024;2023-11-19T10:51:41;35.20;;;8.45;;
58302;SDS011;44109;52.398;7.024;2023-11-19T10:54:13;34.85;;;8.95;;
58302;SDS011;44109;52.398;7.024;2023-11-19T10:56:46;44.05;;;10.52;;
58302;SDS011;44109;52.398;7.024;2023-11-19T10:59:22;40.15;;;9.27;;
58302;SDS011;44109;52.398;7.024;2023-11-19T11:01:53;45.60;;;9.23;;
58302;SDS011;44109;52.398;7.024;2023-11-19T11:04:24;46.95;;;10.07;;
58302;SDS011;44109;52.398;7.024;2023-11-19T11:06:54;30.80;;;8.50;;
58302;SDS011;44109;52.398;7.024;2023-11-19T11:09:25;27.67;;;8.63;;
58302;SDS011;44109;52.398;7.024;2023-11-19T11:11:53;35.28;;;9.38;;
58302;SDS011;44109;52.398;7.024;2023-11-19T11:14:23;39.10;;;10.13;;
58302;SDS011;44109;52.398;7.024;2023-11-19T11:16:55;33.90;;;8.90;;
58302;SDS011;44109;52.398;7.024;2023-11-19T11:19:25;40.40;;;9.82;;
58302;SDS011;44109;52.398;7.024;2023-11-19T11:21:53;40.50;;;10.02;;
58302;SDS011;44109;52.398;7.024;2023-11-19T11:24:41;36.88;;;10.93;;
58302;SDS011;44109;52.398;7.024;2023-11-19T11:27:42;43.15;;;10.13;;
58302;SDS011;44109;52.398;7.024;2023-11-19T11:30:25;33.58;;;9.07;;
58302;SDS011;44109;52.398;7.024;2023-11-19T11:33:13;36.53;;;9.00;;
58302;SDS011;44109;52.398;7.024;2023-11-19T11:36:03;25.08;;;8.13;;
58302;SDS011;44109;52.398;7.024;2023-11-19T11:38:45;36.88;;;8.63;;
58302;SDS011;44109;52.398;7.024;2023-11-19T11:41:16;39.85;;;9.57;;
58302;SDS011;44109;52.398;7.024;2023-11-19T11:43:48;32.40;;;8.77;;
58302;SDS011;44109;52.398;7.024;2023-11-19T11:49:25;32.95;;;9.57;;
58302;SDS011;44109;52.398;7.024;2023-11-19T11:51:59;33.50;;;9.07;;
58302;SDS011;44109;52.398;7.024;2023-11-19T11:54:29;34.70;;;8.98;;
58302;SDS011;44109;52.398;7.024;2023-11-19T11:57:01;48.03;;;10.32;;
58302;SDS011;44109;52.398;7.024;2023-11-19T11:59:48;34.15;;;9.13;;
58302;SDS011;44109;52.398;7.024;2023-11-19T12:02:17;39.85;;;9.65;;
58302;SDS011;44109;52.398;7.024;2023-11-19T12:04:48;44.70;;;10.10;;
58302;SDS011;44109;52.398;7.024;2023-11-19T12:07:18;43.78;;;9.80;;
58302;SDS011;44109;52.398;7.024;2023-11-19T12:09:48;45.35;;;8.75;;
58302;SDS011;44109;52.398;7.024;2023-11-19T12:12:21;35.60;;;9.27;;
58302;SDS011;44109;52.398;7.024;2023-11-19T12:15:03;35.70;;;8.77;;
58302;SDS011;44109;52.398;7.024;2023-11-19T12:17:46;28.90;;;9.10;;
58302;SDS011;44109;52.398;7.024;2023-11-19T12:20:21;30.88;;;8.60;;
58302;SDS011;44109;52.398;7.024;2023-11-19T12:22:50;34.80;;;8.85;;
58302;SDS011;44109;52.398;7.024;2023-11-19T12:25:19;28.85;;;9.05;;
58302;SDS011;44109;52.398;7.024;2023-11-19T12:27:48;27.73;;;7.22;;
58302;SDS011;44109;52.398;7.024;2023-11-19T12:30:21;47.30;;;9.52;;
58302;SDS011;44109;52.398;7.024;2023-11-19T12:32:50;28.67;;;7.93;;
58302;SDS011;44109;52.398;7.024;2023-11-19T12:35:20;32.38;;;8.88;;
58302;SDS011;44109;52.398;7.024;2023-11-19T12:37:49;35.33;;;8.57;;
58302;SDS011;44109;52.398;7.024;2023-11-19T12:40:18;42.20;;;10.77;;
58302;SDS011;44109;52.398;7.024;2023-11-19T12:42:48;31.88;;;8.63;;
58302;SDS011;44109;52.398;7.024;2023-11-19T12:45:16;43.08;;;8.90;;
58302;SDS011;44109;52.398;7.024;2023-11-19T12:47:46;43.88;;;9.93;;
58302;SDS011;44109;52.398;7.024;2023-11-19T12:50:15;21.85;;;6.63;;
58302;SDS011;44109;52.398;7.024;2023-11-19T12:52:56;32.08;;;8.90;;
58302;SDS011;44109;52.398;7.024;2023-11-19T12:55:24;30.38;;;7.90;;
58302;SDS011;44109;52.398;7.024;2023-11-19T12:57:54;20.35;;;6.63;;
58302;SDS011;44109;52.398;7.024;2023-11-19T13:00:23;26.73;;;7.45;;
58302;SDS011;44109;52.398;7.024;2023-11-19T13:02:53;21.27;;;5.78;;
58302;SDS011;44109;52.398;7.024;2023-11-19T13:05:23;27.25;;;7.05;;
58302;SDS011;44109;52.398;7.024;2023-11-19T13:08:04;21.92;;;6.70;;
58302;SDS011;44109;52.398;7.024;2023-11-19T13:10:33;29.10;;;7.47;;
58302;SDS011;44109;52.398;7.024;2023-11-19T13:13:17;33.13;;;8.18;;
58302;SDS011;44109;52.398;7.024;2023-11-19T13:15:45;41.47;;;9.18;;
58302;SDS011;44109;52.398;7.024;2023-11-19T13:18:13;35.47;;;8.05;;
58302;SDS011;44109;52.398;7.024;2023-11-19T13:20:43;32.22;;;7.93;;
58302;SDS011;44109;52.398;7.024;2023-11-19T13:23:11;34.65;;;8.68;;
58302;SDS011;44109;52.398;7.024;2023-11-19T13:25:40;31.50;;;7.65;;
58302;SDS011;44109;52.398;7.024;2023-11-19T13:28:09;39.35;;;8.88;;
58302;SDS011;44109;52.398;7.024;2023-11-19T13:30:36;31.67;;;8.07;;
58302;SDS011;44109;52.398;7.024;2023-11-19T13:33:04;45.00;;;8.88;;
58302;SDS011;44109;52.398;7.024;2023-11-19T13:35:31;38.40;;;8.57;;
58302;SDS011;44109;52.398;7.024;2023-11-19T13:37:58;26.40;;;6.88;;
58302;SDS011;44109;52.398;7.024;2023-11-19T13:40:27;35.70;;;8.57;;
58302;SDS011;44109;52.398;7.024;2023-11-19T13:42:54;31.20;;;7.82;;
58302;SDS011;44109;52.398;7.024;2023-11-19T13:45:22;30.92;;;7.60;;
58302;SDS011;44109;52.398;7.024;2023-11-19T13:47:49;41.80;;;9.40;;
58302;SDS011;44109;52.398;7.024;2023-11-19T13:50:17;41.03;;;9.10;;
58302;SDS011;44109;52.398;7.024;2023-11-19T13:52:44;37.47;;;9.23;;
58302;SDS011;44109;52.398;7.024;2023-11-19T13:55:13;42.05;;;8.73;;
58302;SDS011;44109;52.398;7.024;2023-11-19T13:57:42;26.95;;;7.57;;
58302;SDS011;44109;52.398;7.024;2023-11-19T14:00:10;34.53;;;7.57;;
58302;SDS011;44109;52.398;7.024;2023-11-19T14:02:41;30.23;;;8.88;;
58302;SDS011;44109;52.398;7.024;2023-11-19T14:05:10;42.15;;;8.63;;
58302;SDS011;44109;52.398;7.024;2023-11-19T14:07:37;35.20;;;8.18;;
58302;SDS011;44109;52.398;7.024;2023-11-19T14:10:06;25.73;;;7.10;;
58302;SDS011;44109;52.398;7.024;2023-11-19T14:12:34;28.83;;;7.30;;
58302;SDS011;44109;52.398;7.024;2023-11-19T14:15:05;23.05;;;6.95;;
58302;SDS011;44109;52.398;7.024;2023-11-19T14:17:35;22.83;;;6.30;;
58302;SDS011;44109;52.398;7.024;2023-11-19T14:20:03;29.45;;;6.93;;
58302;SDS011;44109;52.398;7.024;2023-11-19T14:22:38;30.27;;;7.15;;
58302;SDS011;44109;52.398;7.024;2023-11-19T14:25:06;27.00;;;6.97;;
58302;SDS011;44109;52.398;7.024;2023-11-19T14:27:35;37.50;;;9.10;;
58302;SDS011;44109;52.398;7.024;2023-11-19T14:30:06;43.25;;;9.48;;
58302;SDS011;44109;52.398;7.024;2023-11-19T14:32:36;26.40;;;7.13;;
58302;SDS011;44109;52.398;7.024;2023-11-19T14:35:05;34.03;;;9.23;;
58302;SDS011;44109;52.398;7.024;2023-11-19T14:37:34;33.22;;;8.48;;
58302;SDS011;44109;52.398;7.024;2023-11-19T14:40:02;34.00;;;8.15;;
58302;SDS011;44109;52.398;7.024;2023-11-19T14:42:31;40.58;;;8.43;;